Time;durP1;ratioP1;P1;durP2;ratioP2;P2;SDS_P1;SDS_P2;PMS_P1;PMS_P2;Temp;Humidity;BMP_temperature;BMP_pressure;BME280_temperature;BME280_humidity;BME280_pressure;Samples;Min_cycle;Max_cycle;Signal;HPM_P1;HPM_P2
2022/06/02 00:00:05;;;;;;;6.07;5.70;;;;;;;;;;5052547;28;20539;-61
2022/06/02 00:02:36;;;;;;;6.53;6.13;;;;;;;;;;5052750;28;20781;-61
2022/06/02 00:05:10;;;;;;;6.30;5.90;;;;;;;;;;5052454;28;20950;-61
2022/06/02 00:07:44;;;;;;;6.40;5.93;;;;;;;;;;5052778;28;20448;-61
2022/06/02 00:10:14;;;;;;;6.83;5.90;;;;;;;;;;5052523;28;20858;-61
2022/06/02 00:12:47;;;;;;;6.40;6.00;;;;;;;;;;5052353;28;20560;-61
2022/06/02 00:15:18;;;;;;;6.63;6.23;;;;;;;;;;5052575;28;20523;-61
2022/06/02 00:17:49;;;;;;;6.60;6.20;;;;;;;;;;5052453;28;20527;-61
2022/06/02 00:20:18;;;;;;;6.20;5.87;;;;;;;;;;5052456;28;20452;-61
2022/06/02 00:22:53;;;;;;;6.20;5.73;;;;;;;;;;5052313;28;20451;-61
2022/06/02 00:25:24;;;;;;;6.77;6.37;;;;;;;;;;5053456;28;20876;-61
2022/06/02 00:27:54;;;;;;;5.77;5.37;;;;;;;;;;5055966;28;20535;-61
2022/06/02 00:30:22;;;;;;;6.10;5.70;;;;;;;;;;5056056;28;20551;-61
2022/06/02 00:32:54;;;;;;;7.30;6.70;;;;;;;;;;5055871;28;20478;-61
2022/06/02 00:35:24;;;;;;;6.70;6.20;;;;;;;;;;5055889;28;20513;-61
2022/06/02 00:37:53;;;;;;;6.20;5.80;;;;;;;;;;5055773;28;20518;-61
2022/06/02 00:40:21;;;;;;;5.23;4.87;;;;;;;;;;5055978;28;20539;-61
2022/06/02 00:42:54;;;;;;;5.83;5.40;;;;;;;;;;5055609;28;20448;-61
2022/06/02 00:45:22;;;;;;;5.40;5.10;;;;;;;;;;5055644;28;20448;-61
2022/06/02 00:47:51;;;;;;;5.63;4.07;;;;;;;;;;5055646;28;20444;-61
2022/06/02 00:50:31;;;;;;;5.27;4.97;;;;;;;;;;5055755;28;20444;-61
2022/06/02 00:53:06;;;;;;;5.07;4.77;;;;;;;;;;5055585;28;20483;-61
2022/06/02 00:58:33;;;;;;;5.70;5.20;;;;;;;;;;4998867;28;20451;-61
2022/06/02 01:01:04;;;;;;;4.70;4.30;;;;;;;;;;5055577;28;20476;-61
2022/06/02 01:03:36;;;;;;;5.10;4.80;;;;;;;;;;5055498;28;20470;-61
2022/06/02 01:06:10;;;;;;;4.77;4.57;;;;;;;;;;5055402;28;20598;-61
2022/06/02 01:08:47;;;;;;;4.70;4.40;;;;;;;;;;5055262;28;20455;-61
2022/06/02 01:11:19;;;;;;;4.50;4.30;;;;;;;;;;5055441;28;20480;-61
2022/06/02 01:13:51;;;;;;;5.00;4.20;;;;;;;;;;5055217;28;20892;-61
2022/06/02 01:16:21;;;;;;;5.43;5.13;;;;;;;;;;5055427;28;20452;-61
2022/06/02 01:18:56;;;;;;;5.20;4.43;;;;;;;;;;5055020;28;20583;-61
2022/06/02 01:21:33;;;;;;;4.30;4.10;;;;;;;;;;5054968;28;20471;-61
2022/06/02 01:24:09;;;;;;;3.87;3.67;;;;;;;;;;5055386;28;20544;-61
2022/06/02 01:26:39;;;;;;;4.10;3.90;;;;;;;;;;5055007;28;20542;-61
2022/06/02 01:29:13;;;;;;;4.33;4.13;;;;;;;;;;5055021;28;21030;-61
2022/06/02 01:31:50;;;;;;;4.37;4.07;;;;;;;;;;5054799;28;20452;-61
2022/06/02 01:34:24;;;;;;;3.80;3.60;;;;;;;;;;5054921;28;20541;-61
2022/06/02 01:36:55;;;;;;;4.73;3.97;;;;;;;;;;5053943;28;20874;-61
2022/06/02 01:39:30;;;;;;;3.93;3.70;;;;;;;;;;5055077;28;20444;-61
2022/06/02 01:42:01;;;;;;;4.50;4.10;;;;;;;;;;5054602;28;20538;-61
2022/06/02 01:44:31;;;;;;;4.17;3.87;;;;;;;;;;5054503;28;20508;-61
2022/06/02 01:47:03;;;;;;;3.90;3.70;;;;;;;;;;5054459;28;21035;-62
2022/06/02 01:49:34;;;;;;;4.63;4.33;;;;;;;;;;5054617;28;20970;-61
2022/06/02 01:52:07;;;;;;;4.27;4.00;;;;;;;;;;5054643;28;21027;-61
2022/06/02 01:54:41;;;;;;;4.20;4.00;;;;;;;;;;5054251;28;20523;-62
2022/06/02 01:57:23;;;;;;;4.73;4.53;;;;;;;;;;5054488;28;20455;-61
2022/06/02 01:59:57;;;;;;;4.00;3.80;;;;;;;;;;5052744;28;20543;-61
2022/06/02 02:02:29;;;;;;;3.80;3.70;;;;;;;;;;5054137;28;21001;-61
2022/06/02 02:05:04;;;;;;;3.67;3.47;;;;;;;;;;5054123;28;20456;-61
2022/06/02 02:07:34;;;;;;;3.97;3.70;;;;;;;;;;5054110;28;20882;-61
2022/06/02 02:10:07;;;;;;;4.03;3.83;;;;;;;;;;5054262;28;20961;-61
2022/06/02 02:12:41;;;;;;;4.10;3.70;;;;;;;;;;5054094;28;20453;-61
2022/06/02 02:15:15;;;;;;;4.20;4.00;;;;;;;;;;5053979;28;20542;-61
2022/06/02 02:17:49;;;;;;;4.23;4.03;;;;;;;;;;5053857;28;20452;-61
2022/06/02 02:20:21;;;;;;;4.03;3.83;;;;;;;;;;5054017;28;20448;-61
2022/06/02 02:22:53;;;;;;;3.80;3.60;;;;;;;;;;5053891;28;20448;-60
2022/06/02 02:25:25;;;;;;;4.13;3.93;;;;;;;;;;5053875;28;20876;-61
2022/06/02 02:28:05;;;;;;;5.33;4.00;;;;;;;;;;5053631;28;20536;-61
2022/06/02 02:30:38;;;;;;;4.53;4.33;;;;;;;;;;5053875;28;20804;-61
2022/06/02 02:33:13;;;;;;;6.73;4.23;;;;;;;;;;5053704;28;20558;-61
2022/06/02 02:35:45;;;;;;;5.73;4.83;;;;;;;;;;5053894;28;20880;-61
2022/06/02 02:38:15;;;;;;;4.80;4.43;;;;;;;;;;5053730;28;20538;-61
2022/06/02 02:40:45;;;;;;;5.10;4.80;;;;;;;;;;5053510;28;20452;-61
2022/06/02 02:43:16;;;;;;;4.53;4.17;;;;;;;;;;5053412;28;20487;-61
2022/06/02 02:45:46;;;;;;;4.30;4.03;;;;;;;;;;5053544;28;20560;-61
2022/06/02 02:48:20;;;;;;;5.20;4.80;;;;;;;;;;5053316;28;20808;-61
2022/06/02 02:50:53;;;;;;;5.67;5.17;;;;;;;;;;5053310;28;20888;-61
2022/06/02 02:53:22;;;;;;;4.77;4.47;;;;;;;;;;5053428;28;20542;-61
2022/06/02 02:55:53;;;;;;;5.17;4.87;;;;;;;;;;5053319;28;20455;-61
2022/06/02 02:58:25;;;;;;;4.80;4.50;;;;;;;;;;5053300;28;20452;-61
2022/06/02 03:00:59;;;;;;;5.53;5.23;;;;;;;;;;5053198;28;20457;-61
2022/06/02 03:03:31;;;;;;;5.57;5.17;;;;;;;;;;5052992;28;20455;-61
2022/06/02 03:06:06;;;;;;;4.93;4.53;;;;;;;;;;5053220;28;20539;-61
2022/06/02 03:08:36;;;;;;;5.67;5.17;;;;;;;;;;5053217;28;20467;-61
2022/06/02 03:11:08;;;;;;;4.73;4.43;;;;;;;;;;5053448;28;20539;-61
2022/06/02 03:13:41;;;;;;;4.53;4.23;;;;;;;;;;5052961;28;20468;-61
2022/06/02 03:16:09;;;;;;;4.47;4.17;;;;;;;;;;5052855;28;20535;-61
2022/06/02 03:18:54;;;;;;;4.67;4.37;;;;;;;;;;5053101;28;20450;-61
2022/06/02 03:21:29;;;;;;;4.77;4.53;;;;;;;;;;5052892;28;20444;-61
2022/06/02 03:24:09;;;;;;;4.70;4.30;;;;;;;;;;5052912;28;20487;-61
2022/06/02 03:26:43;;;;;;;4.33;4.13;;;;;;;;;;5052879;28;20539;-60
2022/06/02 03:29:15;;;;;;;4.40;4.10;;;;;;;;;;5052915;28;20444;-61
2022/06/02 03:31:46;;;;;;;4.40;4.10;;;;;;;;;;5052907;28;20539;-61
2022/06/02 03:34:18;;;;;;;4.57;3.27;;;;;;;;;;5052681;28;21047;-61
2022/06/02 03:37:06;;;;;;;4.60;4.30;;;;;;;;;;5052655;28;20966;-61
2022/06/02 03:39:41;;;;;;;4.57;4.33;;;;;;;;;;5052758;28;20476;-61
2022/06/02 03:42:14;;;;;;;4.67;4.37;;;;;;;;;;5052643;28;20961;-61
2022/06/02 03:44:48;;;;;;;4.80;4.50;;;;;;;;;;5052682;28;20476;-61
2022/06/02 03:47:35;;;;;;;4.50;4.20;;;;;;;;;;5052676;28;20490;-61
2022/06/02 03:50:12;;;;;;;4.73;4.33;;;;;;;;;;5052879;28;20452;-61
2022/06/02 03:52:50;;;;;;;4.60;4.30;;;;;;;;;;5052814;28;20440;-61
2022/06/02 03:55:25;;;;;;;4.60;4.30;;;;;;;;;;5052472;28;20483;-61
2022/06/02 03:58:00;;;;;;;4.20;4.00;;;;;;;;;;5052859;28;20475;-61
2022/06/02 04:00:28;;;;;;;4.40;4.10;;;;;;;;;;5054086;28;20452;-61
2022/06/02 04:02:56;;;;;;;4.03;3.80;;;;;;;;;;5056518;28;20535;-61
2022/06/02 04:05:42;;;;;;;4.57;4.00;;;;;;;;;;5056449;28;20467;-62
2022/06/02 04:08:18;;;;;;;4.73;4.53;;;;;;;;;;5056249;28;20543;-61
2022/06/02 04:10:51;;;;;;;4.20;3.90;;;;;;;;;;5056405;28;20448;-61
2022/06/02 04:13:38;;;;;;;4.47;4.10;;;;;;;;;;5056262;28;20558;-61
2022/06/02 04:16:22;;;;;;;7.43;4.30;;;;;;;;;;5056114;28;20894;-60
2022/06/02 04:18:54;;;;;;;4.27;4.00;;;;;;;;;;5056092;28;20526;-61
2022/06/02 04:21:36;;;;;;;4.23;4.03;;;;;;;;;;5056129;28;20543;-61
2022/06/02 04:24:13;;;;;;;4.30;4.00;;;;;;;;;;5055963;28;20456;-61
2022/06/02 04:26:52;;;;;;;4.40;4.20;;;;;;;;;;5055971;28;20546;-61
2022/06/02 04:29:25;;;;;;;5.00;4.70;;;;;;;;;;5056153;28;20455;-61
2022/06/02 04:31:57;;;;;;;4.07;3.77;;;;;;;;;;5056111;28;20452;-61
2022/06/02 04:34:30;;;;;;;3.70;3.50;;;;;;;;;;5055897;28;20571;-61
2022/06/02 04:37:02;;;;;;;3.87;3.57;;;;;;;;;;5055836;28;20539;-62
2022/06/02 04:39:34;;;;;;;3.90;3.60;;;;;;;;;;5055940;28;20480;-61
2022/06/02 04:42:05;;;;;;;3.80;3.53;;;;;;;;;;5055410;28;21021;-61
2022/06/02 04:44:36;;;;;;;5.67;4.13;;;;;;;;;;5055536;28;21054;-61
2022/06/02 04:47:08;;;;;;;3.73;3.53;;;;;;;;;;5055444;28;20972;-61
2022/06/02 04:49:40;;;;;;;3.93;3.73;;;;;;;;;;5055419;28;20449;-61
2022/06/02 04:52:12;;;;;;;4.67;4.37;;;;;;;;;;5055632;28;20471;-61
2022/06/02 04:54:44;;;;;;;4.27;3.97;;;;;;;;;;5055412;28;20575;-61
2022/06/02 04:57:18;;;;;;;3.97;3.67;;;;;;;;;;5055437;28;20539;-61
2022/06/02 04:59:51;;;;;;;4.97;4.63;;;;;;;;;;5055234;28;20448;-61
2022/06/02 05:02:22;;;;;;;5.07;4.67;;;;;;;;;;5055098;28;20543;-61
2022/06/02 05:04:52;;;;;;;4.30;4.10;;;;;;;;;;5055318;28;20531;-61
2022/06/02 05:07:26;;;;;;;4.33;4.03;;;;;;;;;;5055177;28;20457;-61
2022/06/02 05:10:01;;;;;;;5.07;4.77;;;;;;;;;;5055334;28;20887;-61
2022/06/02 05:12:31;;;;;;;4.80;4.50;;;;;;;;;;5053756;28;20813;-61
2022/06/02 05:15:03;;;;;;;5.13;4.83;;;;;;;;;;5055117;28;20490;-61
2022/06/02 05:17:53;;;;;;;4.60;4.30;;;;;;;;;;5054880;28;20449;-61
2022/06/02 05:20:38;;;;;;;4.70;4.30;;;;;;;;;;5055076;28;20532;-60
2022/06/02 05:23:17;;;;;;;4.30;4.10;;;;;;;;;;5054811;28;20456;-61
2022/06/02 05:25:53;;;;;;;4.47;4.17;;;;;;;;;;5054932;28;20491;-61
2022/06/02 05:28:30;;;;;;;5.80;4.43;;;;;;;;;;5054874;28;20448;-61
2022/06/02 05:31:00;;;;;;;4.63;4.33;;;;;;;;;;5054718;28;20447;-61
2022/06/02 05:33:46;;;;;;;5.37;4.97;;;;;;;;;;5054486;28;21027;-61
2022/06/02 05:36:22;;;;;;;5.27;4.87;;;;;;;;;;5054487;28;20480;-61
2022/06/02 05:38:55;;;;;;;4.60;4.20;;;;;;;;;;5054350;28;21013;-61
2022/06/02 05:41:31;;;;;;;5.00;4.60;;;;;;;;;;5054449;28;20487;-61
2022/06/02 05:44:01;;;;;;;6.50;5.20;;;;;;;;;;5053968;28;20573;-61
2022/06/02 05:46:33;;;;;;;5.90;5.13;;;;;;;;;;5054287;28;20530;-61
2022/06/02 05:49:06;;;;;;;6.40;4.87;;;;;;;;;;5054358;28;20471;-61
2022/06/02 05:51:35;;;;;;;6.33;5.40;;;;;;;;;;5054217;28;20543;-61
2022/06/02 05:54:09;;;;;;;6.30;5.73;;;;;;;;;;5053960;28;20451;-61
2022/06/02 05:56:41;;;;;;;5.70;5.30;;;;;;;;;;5054185;28;20440;-61
2022/06/02 05:59:18;;;;;;;7.47;6.87;;;;;;;;;;5054216;28;20594;-61
2022/06/02 06:01:53;;;;;;;6.70;6.20;;;;;;;;;;5054038;28;20474;-61
2022/06/02 06:04:32;;;;;;;6.93;6.07;;;;;;;;;;5053995;28;20811;-61
2022/06/02 06:07:01;;;;;;;8.70;7.60;;;;;;;;;;5053703;28;20456;-61
2022/06/02 06:09:35;;;;;;;6.40;5.80;;;;;;;;;;5053918;28;20793;-61
2022/06/02 06:12:30;;;;;;;6.70;6.20;;;;;;;;;;5054002;28;20884;-61
2022/06/02 06:15:03;;;;;;;7.70;7.10;;;;;;;;;;5053787;28;20508;-61
2022/06/02 06:17:36;;;;;;;7.30;6.80;;;;;;;;;;5053746;28;20539;-61
2022/06/02 06:20:07;;;;;;;9.37;8.43;;;;;;;;;;5054238;28;20444;-61
2022/06/02 06:22:46;;;;;;;8.20;7.50;;;;;;;;;;5053426;28;20540;-61
2022/06/02 06:25:20;;;;;;;8.07;7.43;;;;;;;;;;5053706;28;20850;-61
2022/06/02 06:27:54;;;;;;;8.50;7.70;;;;;;;;;;5053571;28;20547;-61
2022/06/02 06:30:28;;;;;;;7.90;7.30;;;;;;;;;;5045535;28;20547;-61
2022/06/02 06:33:03;;;;;;;8.97;8.07;;;;;;;;;;5047034;28;20457;-65
2022/06/02 06:35:39;;;;;;;8.90;8.20;;;;;;;;;;5069445;28;20562;-57
2022/06/02 06:38:17;;;;;;;8.87;8.17;;;;;;;;;;5053314;28;20483;-68
2022/06/02 06:40:56;;;;;;;9.00;8.10;;;;;;;;;;5042741;28;20540;-59
2022/06/02 06:43:34;;;;;;;9.37;8.67;;;;;;;;;;5047517;28;20606;-60
2022/06/02 06:46:02;;;;;;;8.43;7.70;;;;;;;;;;5053156;28;20448;-59
2022/06/02 06:48:34;;;;;;;8.97;8.17;;;;;;;;;;5052670;28;20536;-59
2022/06/02 06:51:03;;;;;;;11.33;10.37;;;;;;;;;;5033686;28;20524;-59
2022/06/02 06:53:39;;;;;;;10.37;9.47;;;;;;;;;;5033336;28;20449;-59
2022/06/02 06:56:10;;;;;;;9.70;8.90;;;;;;;;;;5033728;28;20554;-59
2022/06/02 06:58:46;;;;;;;11.10;10.00;;;;;;;;;;5033255;28;20484;-59
2022/06/02 07:01:16;;;;;;;12.80;11.50;;;;;;;;;;5033005;28;20449;-59
2022/06/02 07:03:49;;;;;;;11.70;9.37;;;;;;;;;;5033510;28;20571;-59
2022/06/02 07:06:23;;;;;;;14.43;9.60;;;;;;;;;;5033147;28;20464;-59
2022/06/02 07:08:54;;;;;;;10.53;9.70;;;;;;;;;;5032959;28;20912;-59
2022/06/02 07:14:13;;;;;;;8.90;8.20;;;;;;;;;;5069646;28;20587;-60
2022/06/02 07:16:43;;;;;;;9.20;8.50;;;;;;;;;;5068682;28;20855;-60
2022/06/02 07:19:13;;;;;;;8.83;8.13;;;;;;;;;;5055544;28;20483;-58
2022/06/02 07:21:44;;;;;;;9.73;7.57;;;;;;;;;;5052303;28;20821;-60
2022/06/02 07:24:17;;;;;;;9.93;8.70;;;;;;;;;;5053400;28;20459;-60
2022/06/02 07:27:02;;;;;;;9.50;8.53;;;;;;;;;;5052584;28;20803;-61
2022/06/02 07:29:44;;;;;;;9.00;8.30;;;;;;;;;;5053804;28;20948;-62
2022/06/02 07:32:24;;;;;;;8.80;8.10;;;;;;;;;;5052184;28;20546;-62
2022/06/02 07:34:58;;;;;;;9.17;8.37;;;;;;;;;;5056395;28;20862;-62
2022/06/02 07:37:31;;;;;;;8.27;7.67;;;;;;;;;;5055957;28;20451;-62
2022/06/02 07:40:07;;;;;;;9.53;8.60;;;;;;;;;;5064192;28;20562;-63
2022/06/02 07:42:59;;;;;;;9.40;8.50;;;;;;;;;;5058034;28;20527;-58
2022/06/02 07:45:46;;;;;;;11.30;8.83;;;;;;;;;;5057972;28;20939;-62
2022/06/02 07:48:28;;;;;;;8.00;7.40;;;;;;;;;;5046521;28;20851;-60
2022/06/02 07:50:58;;;;;;;9.30;8.47;;;;;;;;;;5058993;28;20479;-61
2022/06/02 07:53:31;;;;;;;9.27;8.47;;;;;;;;;;5056500;28;20474;-60
2022/06/02 07:56:05;;;;;;;8.60;7.97;;;;;;;;;;5057896;28;20487;-61
2022/06/02 07:58:36;;;;;;;7.93;7.27;;;;;;;;;;5066788;28;20547;-59
2022/06/02 08:01:07;;;;;;;8.30;7.70;;;;;;;;;;5056180;28;21026;-62
2022/06/02 08:03:52;;;;;;;8.73;8.10;;;;;;;;;;5036356;28;20461;-64
2022/06/02 08:06:21;;;;;;;7.87;6.90;;;;;;;;;;5029481;28;20487;-64
2022/06/02 08:08:50;;;;;;;8.13;7.30;;;;;;;;;;5036213;28;20456;-63
2022/06/02 08:11:21;;;;;;;7.27;6.37;;;;;;;;;;5036985;28;20650;-62
2022/06/02 08:13:52;;;;;;;6.93;6.33;;;;;;;;;;5056483;28;20452;-59
2022/06/02 08:16:26;;;;;;;6.47;5.97;;;;;;;;;;5053249;28;21032;-60
2022/06/02 08:19:03;;;;;;;6.67;6.07;;;;;;;;;;5051719;28;20535;-60
2022/06/02 08:21:31;;;;;;;6.10;5.60;;;;;;;;;;5054316;28;20538;-60
2022/06/02 08:24:16;;;;;;;5.00;4.60;;;;;;;;;;5056150;28;20455;-60
2022/06/02 08:26:51;;;;;;;5.03;4.73;;;;;;;;;;5048024;28;20452;-61
2022/06/02 08:29:23;;;;;;;5.63;5.13;;;;;;;;;;5055954;28;20494;-60
2022/06/02 08:32:03;;;;;;;5.63;4.73;;;;;;;;;;5051946;28;20821;-59
2022/06/02 08:34:36;;;;;;;4.80;4.40;;;;;;;;;;5064188;28;20538;-56
2022/06/02 08:37:08;;;;;;;5.07;4.57;;;;;;;;;;5055855;28;20456;-54
2022/06/02 08:39:42;;;;;;;5.20;4.70;;;;;;;;;;5048891;28;20459;-61
2022/06/02 08:42:21;;;;;;;4.13;3.93;;;;;;;;;;5056795;28;20919;-61
2022/06/02 08:45:03;;;;;;;4.80;4.50;;;;;;;;;;5057579;28;20484;-67
2022/06/02 08:48:03;;;;;;;4.70;4.30;;;;;;;;;;5057348;28;20506;-67
2022/06/02 08:50:48;;;;;;;4.00;3.70;;;;;;;;;;5013742;28;20829;-67
2022/06/02 08:53:35;;;;;;;4.20;3.87;;;;;;;;;;5009877;28;20917;-60
2022/06/02 08:56:14;;;;;;;3.70;3.40;;;;;;;;;;5041032;28;20511;-60
2022/06/02 08:58:50;;;;;;;4.00;3.70;;;;;;;;;;5058788;28;20459;-60
2022/06/02 09:01:26;;;;;;;3.30;3.10;;;;;;;;;;5055305;28;20452;-60
2022/06/02 09:04:07;;;;;;;3.10;2.90;;;;;;;;;;5054914;28;20448;-59
2022/06/02 09:06:51;;;;;;;3.60;3.30;;;;;;;;;;5055602;28;20894;-60
2022/06/02 09:09:37;;;;;;;3.00;2.80;;;;;;;;;;5055185;28;20444;-60
2022/06/02 09:12:12;;;;;;;2.80;2.70;;;;;;;;;;5054694;28;20448;-61
2022/06/02 09:14:56;;;;;;;3.03;2.73;;;;;;;;;;5055341;28;20764;-61
2022/06/02 09:17:27;;;;;;;2.97;2.77;;;;;;;;;;5055047;28;20544;-61
2022/06/02 09:20:05;;;;;;;4.00;3.03;;;;;;;;;;5055091;28;20484;-60
2022/06/02 09:22:34;;;;;;;2.87;2.77;;;;;;;;;;5055479;28;20535;-61
2022/06/02 09:25:11;;;;;;;3.80;2.40;;;;;;;;;;5054443;28;20531;-65
2022/06/02 09:28:06;;;;;;;2.73;2.63;;;;;;;;;;5054349;28;20456;-65
2022/06/02 09:30:42;;;;;;;2.60;2.33;;;;;;;;;;5056915;28;20455;-66
2022/06/02 09:33:35;;;;;;;2.53;2.33;;;;;;;;;;5054210;28;21189;-62
2022/06/02 09:36:05;;;;;;;3.00;2.30;;;;;;;;;;5074637;28;20474;-61
2022/06/02 09:38:54;;;;;;;2.30;2.10;;;;;;;;;;5074597;28;20550;-61
2022/06/02 09:41:32;;;;;;;1.70;1.60;;;;;;;;;;5055190;28;20444;-61
2022/06/02 09:44:05;;;;;;;2.30;2.10;;;;;;;;;;5055934;28;20512;-61
2022/06/02 09:46:51;;;;;;;3.40;1.57;;;;;;;;;;5044552;28;21040;-61
2022/06/02 09:49:28;;;;;;;2.20;2.00;;;;;;;;;;5052478;28;20448;-61
2022/06/02 09:51:56;;;;;;;2.90;1.90;;;;;;;;;;5054229;28;20452;-61
2022/06/02 09:54:35;;;;;;;2.63;2.40;;;;;;;;;;5054243;28;20448;-62
2022/06/02 10:00:11;;;;;;;2.23;1.40;;;;;;;;;;5054562;28;20439;-61
2022/06/02 10:02:42;;;;;;;1.40;1.30;;;;;;;;;;5054331;28;20448;-61
2022/06/02 10:05:25;;;;;;;1.73;1.30;;;;;;;;;;5054413;28;20551;-61
2022/06/02 10:07:57;;;;;;;1.60;1.50;;;;;;;;;;5054151;28;20527;-61
2022/06/02 10:10:31;;;;;;;1.67;1.50;;;;;;;;;;5053961;28;20538;-61
2022/06/02 10:13:21;;;;;;;2.70;1.67;;;;;;;;;;5054128;28;20478;-61
2022/06/02 10:16:03;;;;;;;2.30;1.33;;;;;;;;;;5053905;28;20559;-61
2022/06/02 10:18:45;;;;;;;2.17;1.43;;;;;;;;;;5054042;28;20452;-61
2022/06/02 10:21:20;;;;;;;1.60;1.37;;;;;;;;;;5031544;28;20540;-61
2022/06/02 10:24:05;;;;;;;1.77;1.50;;;;;;;;;;5053819;28;20882;-61
2022/06/02 10:26:39;;;;;;;1.70;1.50;;;;;;;;;;5053642;28;20448;-61
2022/06/02 10:29:22;;;;;;;2.10;1.40;;;;;;;;;;5053670;28;20534;-61
2022/06/02 10:32:08;;;;;;;4.47;1.93;;;;;;;;;;5053891;28;20538;-61
2022/06/02 10:34:50;;;;;;;2.20;1.80;;;;;;;;;;5053640;28;20835;-61
2022/06/02 10:37:33;;;;;;;1.20;1.10;;;;;;;;;;5051962;28;20491;-61
2022/06/02 10:40:18;;;;;;;2.60;1.27;;;;;;;;;;5053393;28;20931;-61
2022/06/02 10:42:57;;;;;;;5.77;1.63;;;;;;;;;;5053511;28;20880;-61
2022/06/02 10:45:35;;;;;;;2.03;1.40;;;;;;;;;;5053431;28;20459;-61
2022/06/02 10:48:20;;;;;;;5.90;1.43;;;;;;;;;;5053211;28;20482;-61
2022/06/02 10:50:58;;;;;;;5.13;2.00;;;;;;;;;;5053508;28;20852;-61
2022/06/02 10:53:41;;;;;;;2.20;1.10;;;;;;;;;;5053102;28;21034;-61
2022/06/02 10:56:19;;;;;;;1.60;1.27;;;;;;;;;;5053171;28;20480;-61
2022/06/02 10:59:01;;;;;;;1.10;1.00;;;;;;;;;;5053292;28;20448;-62
2022/06/02 11:01:41;;;;;;;1.40;1.30;;;;;;;;;;5053299;28;20480;-61
2022/06/02 11:04:25;;;;;;;1.27;1.10;;;;;;;;;;5052866;28;20452;-61
2022/06/02 11:07:18;;;;;;;1.40;1.30;;;;;;;;;;5052845;28;20444;-61
2022/06/02 11:10:06;;;;;;;1.10;1.00;;;;;;;;;;5052970;28;20894;-61
2022/06/02 11:12:55;;;;;;;0.90;0.90;;;;;;;;;;5053002;28;20455;-61
2022/06/02 11:15:43;;;;;;;1.47;1.10;;;;;;;;;;5052957;28;20558;-62
2022/06/02 11:18:28;;;;;;;2.70;1.20;;;;;;;;;;5053066;28;20477;-62
2022/06/02 11:21:05;;;;;;;4.37;1.10;;;;;;;;;;5053035;28;20540;-62
2022/06/02 11:23:50;;;;;;;3.13;1.10;;;;;;;;;;5052834;28;20535;-62
2022/06/02 11:26:30;;;;;;;4.17;1.30;;;;;;;;;;5052976;28;20467;-62
2022/06/02 11:29:12;;;;;;;1.47;1.00;;;;;;;;;;5052732;28;20558;-62
2022/06/02 11:31:51;;;;;;;4.67;1.20;;;;;;;;;;5052528;28;20452;-62
2022/06/02 11:34:26;;;;;;;1.83;1.03;;;;;;;;;;5052752;28;20883;-62
2022/06/02 11:37:27;;;;;;;1.17;0.90;;;;;;;;;;5052258;28;20913;-62
2022/06/02 11:40:05;;;;;;;0.90;0.73;;;;;;;;;;5010126;28;20525;-62
2022/06/02 11:42:48;;;;;;;0.97;0.97;;;;;;;;;;5010610;28;20569;-62
2022/06/02 11:45:22;;;;;;;1.90;0.97;;;;;;;;;;5037095;28;20487;-62
2022/06/02 11:47:59;;;;;;;1.67;0.90;;;;;;;;;;5052643;28;20543;-61
2022/06/02 11:50:41;;;;;;;1.30;1.20;;;;;;;;;;5052550;28;20535;-62
2022/06/02 11:53:16;;;;;;;0.87;0.87;;;;;;;;;;5052587;28;20539;-61
2022/06/02 11:55:47;;;;;;;3.83;0.90;;;;;;;;;;5052403;28;21024;-61
2022/06/02 11:58:24;;;;;;;1.20;1.03;;;;;;;;;;5052258;28;20535;-62
2022/06/02 12:01:21;;;;;;;2.50;1.47;;;;;;;;;;5052339;28;20955;-62
2022/06/02 12:04:04;;;;;;;1.30;0.90;;;;;;;;;;5052557;28;20510;-62
2022/06/02 12:06:42;;;;;;;1.23;0.80;;;;;;;;;;5051941;28;21038;-61
2022/06/02 12:09:22;;;;;;;0.80;0.70;;;;;;;;;;5052066;28;20459;-61
2022/06/02 12:11:56;;;;;;;1.30;0.87;;;;;;;;;;5052409;28;20533;-61
2022/06/02 12:14:36;;;;;;;1.10;1.00;;;;;;;;;;5052296;28;20880;-61
2022/06/02 12:17:21;;;;;;;1.00;0.87;;;;;;;;;;5052290;28;20575;-61
2022/06/02 12:19:54;;;;;;;1.30;1.20;;;;;;;;;;5052337;28;20491;-61
2022/06/02 12:22:34;;;;;;;1.23;1.00;;;;;;;;;;5055078;28;20547;-61
2022/06/02 12:25:16;;;;;;;1.37;0.97;;;;;;;;;;5055895;28;20563;-62
2022/06/02 12:28:04;;;;;;;1.27;0.80;;;;;;;;;;5033616;28;20448;-61
2022/06/02 12:30:52;;;;;;;1.37;0.90;;;;;;;;;;5052533;28;20452;-61
2022/06/02 12:33:31;;;;;;;1.23;0.87;;;;;;;;;;5055927;28;20455;-61
2022/06/02 12:36:16;;;;;;;2.00;1.10;;;;;;;;;;5055690;28;20462;-61
2022/06/02 12:38:52;;;;;;;1.10;0.90;;;;;;;;;;5055608;28;20527;-61
2022/06/02 12:41:28;;;;;;;0.93;0.90;;;;;;;;;;5055713;28;20499;-61
2022/06/02 12:44:10;;;;;;;0.97;0.87;;;;;;;;;;5055564;28;20487;-61
2022/06/02 12:46:55;;;;;;;1.20;1.00;;;;;;;;;;5055396;28;20452;-61
2022/06/02 12:49:39;;;;;;;0.83;0.80;;;;;;;;;;5034835;28;20452;-61
2022/06/02 12:52:11;;;;;;;1.00;0.90;;;;;;;;;;5055730;28;20539;-61
2022/06/02 12:54:56;;;;;;;2.27;1.10;;;;;;;;;;5055607;28;20452;-61
2022/06/02 12:57:42;;;;;;;1.17;1.00;;;;;;;;;;5055279;28;20567;-61
2022/06/02 13:00:19;;;;;;;0.80;0.80;;;;;;;;;;5055464;28;20452;-61
2022/06/02 13:03:01;;;;;;;2.23;0.80;;;;;;;;;;5055336;28;20846;-61
2022/06/02 13:05:57;;;;;;;0.80;0.70;;;;;;;;;;5053485;28;20539;-61
2022/06/02 13:08:40;;;;;;;3.43;1.00;;;;;;;;;;5055431;28;20532;-61
2022/06/02 13:11:32;;;;;;;1.30;0.90;;;;;;;;;;5055184;28;20534;-61
2022/06/02 13:14:17;;;;;;;1.20;0.80;;;;;;;;;;5055099;28;20448;-61
2022/06/02 13:17:00;;;;;;;0.80;0.80;;;;;;;;;;5055026;28;20693;-61
2022/06/02 13:19:49;;;;;;;1.40;0.90;;;;;;;;;;5054814;28;20535;-61
2022/06/02 13:22:26;;;;;;;0.80;0.80;;;;;;;;;;5054803;28;20445;-61
2022/06/02 13:25:03;;;;;;;1.23;0.70;;;;;;;;;;5055002;28;20466;-61
2022/06/02 13:27:43;;;;;;;0.90;0.70;;;;;;;;;;5055009;28;20876;-62
2022/06/02 13:30:18;;;;;;;3.10;0.97;;;;;;;;;;5054883;28;20891;-62
2022/06/02 13:32:58;;;;;;;1.10;0.90;;;;;;;;;;5053468;28;20535;-62
2022/06/02 13:35:44;;;;;;;1.93;1.10;;;;;;;;;;5054601;28;20454;-62
2022/06/02 13:38:28;;;;;;;0.90;0.90;;;;;;;;;;5054629;28;20915;-62
2022/06/02 13:41:06;;;;;;;1.47;0.73;;;;;;;;;;5054487;28;20456;-62
2022/06/02 13:43:50;;;;;;;1.30;1.20;;;;;;;;;;5054168;28;21023;-61
2022/06/02 13:46:29;;;;;;;3.10;1.10;;;;;;;;;;5054374;28;20939;-61
2022/06/02 13:49:15;;;;;;;0.80;0.80;;;;;;;;;;5054312;28;20542;-61
2022/06/02 13:52:01;;;;;;;0.80;0.70;;;;;;;;;;5054272;28;20536;-61
2022/06/02 13:57:38;;;;;;;1.10;0.90;;;;;;;;;;5054007;28;20474;-61
2022/06/02 14:00:14;;;;;;;1.10;1.00;;;;;;;;;;5054338;28;20480;-61
2022/06/02 14:02:51;;;;;;;1.20;1.10;;;;;;;;;;5054148;28;20559;-61
2022/06/02 14:05:27;;;;;;;1.40;1.30;;;;;;;;;;5054164;28;20538;-61
2022/06/02 14:08:14;;;;;;;1.30;1.20;;;;;;;;;;5053988;28;20546;-62
2022/06/02 14:10:51;;;;;;;1.47;1.03;;;;;;;;;;5054019;28;20462;-62
2022/06/02 14:13:32;;;;;;;2.23;1.17;;;;;;;;;;5054279;28;20454;-62
2022/06/02 14:16:04;;;;;;;4.80;1.87;;;;;;;;;;5053996;28;20535;-61
2022/06/02 14:18:40;;;;;;;2.47;1.10;;;;;;;;;;5053733;28;20567;-61
2022/06/02 14:21:11;;;;;;;1.30;1.20;;;;;;;;;;5053764;28;20540;-61
2022/06/02 14:23:45;;;;;;;1.20;1.07;;;;;;;;;;5054184;28;20521;-61
2022/06/02 14:26:22;;;;;;;2.00;0.97;;;;;;;;;;5053813;28;20448;-61
2022/06/02 14:28:58;;;;;;;1.30;1.20;;;;;;;;;;5053622;28;20444;-61
2022/06/02 14:31:29;;;;;;;1.40;1.30;;;;;;;;;;5053693;28;20538;-62
2022/06/02 14:34:00;;;;;;;1.10;1.00;;;;;;;;;;5053645;28;20480;-62
2022/06/02 14:36:30;;;;;;;0.97;0.97;;;;;;;;;;5053471;28;20448;-62
2022/06/02 14:39:03;;;;;;;1.87;1.07;;;;;;;;;;5053731;28;20507;-62
2022/06/02 14:41:37;;;;;;;1.10;0.90;;;;;;;;;;5053324;28;20812;-62
2022/06/02 14:44:13;;;;;;;1.53;1.30;;;;;;;;;;5053045;28;20912;-62
2022/06/02 14:46:47;;;;;;;1.63;0.97;;;;;;;;;;5053513;28;20807;-62
2022/06/02 14:49:25;;;;;;;2.10;1.23;;;;;;;;;;5053352;28;21014;-62
2022/06/02 14:51:57;;;;;;;1.67;1.30;;;;;;;;;;5053169;28;20448;-62
2022/06/02 14:54:29;;;;;;;1.13;1.03;;;;;;;;;;5053254;28;21015;-62
2022/06/02 14:57:05;;;;;;;1.57;1.00;;;;;;;;;;5053264;28;20558;-61
2022/06/02 14:59:46;;;;;;;1.10;1.00;;;;;;;;;;5053173;28;20535;-62
2022/06/02 15:02:20;;;;;;;1.73;1.00;;;;;;;;;;5053103;28;20550;-62
2022/06/02 15:04:53;;;;;;;2.37;1.30;;;;;;;;;;5053297;28;20534;-62
2022/06/02 15:07:33;;;;;;;1.20;0.90;;;;;;;;;;5053500;28;20538;-61
2022/06/02 15:10:06;;;;;;;1.17;0.97;;;;;;;;;;5053445;28;20491;-61
2022/06/02 15:12:50;;;;;;;1.03;1.00;;;;;;;;;;5052782;28;20453;-61
2022/06/02 15:15:29;;;;;;;1.23;1.13;;;;;;;;;;5053128;28;20900;-61
2022/06/02 15:18:07;;;;;;;1.40;1.00;;;;;;;;;;5052866;28;20570;-61
2022/06/02 15:20:40;;;;;;;1.73;1.33;;;;;;;;;;5052911;28;20458;-61
2022/06/02 15:23:14;;;;;;;1.10;0.90;;;;;;;;;;5052895;28;20459;-61
2022/06/02 15:25:46;;;;;;;1.53;0.87;;;;;;;;;;5052838;28;20451;-61
2022/06/02 15:28:44;;;;;;;1.20;1.10;;;;;;;;;;5052641;28;20456;-61
2022/06/02 15:31:16;;;;;;;1.10;1.00;;;;;;;;;;5052812;28;20452;-61
2022/06/02 15:33:58;;;;;;;1.60;1.30;;;;;;;;;;5052962;28;20531;-61
2022/06/02 15:36:35;;;;;;;1.40;1.30;;;;;;;;;;5030172;28;20444;-61
2022/06/02 15:39:18;;;;;;;1.83;1.20;;;;;;;;;;5052677;28;20484;-61
2022/06/02 15:42:02;;;;;;;1.20;1.10;;;;;;;;;;5052565;28;20537;-62
2022/06/02 15:44:47;;;;;;;0.90;0.87;;;;;;;;;;5052295;28;20475;-61
2022/06/02 15:47:34;;;;;;;2.00;1.17;;;;;;;;;;5052582;28;20471;-61
2022/06/02 15:50:12;;;;;;;1.27;1.07;;;;;;;;;;5052670;28;20451;-61